sensor_id;sensor_type;location;lat;lon;timestamp;pressure;altitude;pressure_sealevel;temperature
43292;BMP280;28754;47.700;7.924;2023-03-14T00:01:45;90072.72;;;10.60
43292;BMP280;28754;47.700;7.924;2023-03-14T00:04:31;90083.72;;;10.61
43292;BMP280;28754;47.700;7.924;2023-03-14T00:07:18;90095.69;;;10.65
43292;BMP280;28754;47.700;7.924;2023-03-14T00:10:07;90093.00;;;10.70
43292;BMP280;28754;47.700;7.924;2023-03-14T00:12:54;90098.59;;;10.72
43292;BMP280;28754;47.700;7.924;2023-03-14T00:15:40;90120.69;;;10.68
43292;BMP280;28754;47.700;7.924;2023-03-14T00:18:27;90120.09;;;10.71
43292;BMP280;28754;47.700;7.924;2023-03-14T00:21:14;90101.91;;;10.72
43292;BMP280;28754;47.700;7.924;2023-03-14T00:24:00;90117.75;;;10.74
43292;BMP280;28754;47.700;7.924;2023-03-14T00:26:47;90106.28;;;10.72
43292;BMP280;28754;47.700;7.924;2023-03-14T00:29:33;90102.09;;;10.76
43292;BMP280;28754;47.700;7.924;2023-03-14T00:32:20;90093.38;;;10.77
43292;BMP280;28754;47.700;7.924;2023-03-14T00:35:06;90101.25;;;10.80
43292;BMP280;28754;47.700;7.924;2023-03-14T00:37:53;90089.19;;;10.81
43292;BMP280;28754;47.700;7.924;2023-03-14T00:40:39;90083.88;;;10.77
43292;BMP280;28754;47.700;7.924;2023-03-14T00:43:26;90077.66;;;10.70
43292;BMP280;28754;47.700;7.924;2023-03-14T00:46:15;90063.78;;;10.71
43292;BMP280;28754;47.700;7.924;2023-03-14T00:49:03;90066.34;;;10.71
43292;BMP280;28754;47.700;7.924;2023-03-14T00:51:49;90065.31;;;10.72
43292;BMP280;28754;47.700;7.924;2023-03-14T00:54:37;90060.94;;;10.72
43292;BMP280;28754;47.700;7.924;2023-03-14T00:57:24;90071.19;;;10.72
43292;BMP280;28754;47.700;7.924;2023-03-14T01:00:11;90076.59;;;10.71
43292;BMP280;28754;47.700;7.924;2023-03-14T01:02:58;90082.28;;;10.68
43292;BMP280;28754;47.700;7.924;2023-03-14T01:05:45;90089.97;;;10.68
43292;BMP280;28754;47.700;7.924;2023-03-14T01:08:31;90087.88;;;10.70
43292;BMP280;28754;47.700;7.924;2023-03-14T01:11:21;90088.63;;;10.70
43292;BMP280;28754;47.700;7.924;2023-03-14T01:14:07;90087.88;;;10.70
43292;BMP280;28754;47.700;7.924;2023-03-14T01:16:54;90075.19;;;10.65
43292;BMP280;28754;47.700;7.924;2023-03-14T01:19:47;90080.59;;;10.63
43292;BMP280;28754;47.700;7.924;2023-03-14T01:22:33;90076.22;;;10.64
43292;BMP280;28754;47.700;7.924;2023-03-14T01:25:20;90084.09;;;10.67
43292;BMP280;28754;47.700;7.924;2023-03-14T01:28:07;90076.13;;;10.69
43292;BMP280;28754;47.700;7.924;2023-03-14T01:30:55;90063.16;;;10.65
43292;BMP280;28754;47.700;7.924;2023-03-14T01:33:42;90052.72;;;10.62
43292;BMP280;28754;47.700;7.924;2023-03-14T01:36:29;90030.38;;;10.54
43292;BMP280;28754;47.700;7.924;2023-03-14T01:39:16;90033.50;;;10.51
43292;BMP280;28754;47.700;7.924;2023-03-14T01:42:03;90048.13;;;10.51
43292;BMP280;28754;47.700;7.924;2023-03-14T01:44:51;90060.44;;;10.49
43292;BMP280;28754;47.700;7.924;2023-03-14T01:47:38;90056.94;;;10.45
43292;BMP280;28754;47.700;7.924;2023-03-14T01:50:25;90057.78;;;10.40
43292;BMP280;28754;47.700;7.924;2023-03-14T01:53:11;90047.69;;;10.35
43292;BMP280;28754;47.700;7.924;2023-03-14T01:55:58;90055.91;;;10.32
43292;BMP280;28754;47.700;7.924;2023-03-14T01:58:47;90060.06;;;10.28
43292;BMP280;28754;47.700;7.924;2023-03-14T02:01:35;90054.50;;;10.27
43292;BMP280;28754;47.700;7.924;2023-03-14T02:04:23;90049.19;;;10.23
43292;BMP280;28754;47.700;7.924;2023-03-14T02:07:15;90034.88;;;10.22
43292;BMP280;28754;47.700;7.924;2023-03-14T02:10:14;90042.56;;;10.22
43292;BMP280;28754;47.700;7.924;2023-03-14T02:13:04;90029.75;;;10.22
43292;BMP280;28754;47.700;7.924;2023-03-14T02:16:06;90020.31;;;10.23
43292;BMP280;28754;47.700;7.924;2023-03-14T02:19:05;90015.19;;;10.23
43292;BMP280;28754;47.700;7.924;2023-03-14T02:22:17;90000.88;;;10.22
43292;BMP280;28754;47.700;7.924;2023-03-14T02:28:23;89977.69;;;10.18
43292;BMP280;28754;47.700;7.924;2023-03-14T02:31:15;89983.09;;;10.17
43292;BMP280;28754;47.700;7.924;2023-03-14T02:34:02;89986.41;;;10.17
43292;BMP280;28754;47.700;7.924;2023-03-14T02:36:49;89978.19;;;10.20
43292;BMP280;28754;47.700;7.924;2023-03-14T02:39:38;89972.47;;;10.23
43292;BMP280;28754;47.700;7.924;2023-03-14T02:42:27;89951.25;;;10.23
43292;BMP280;28754;47.700;7.924;2023-03-14T02:48:11;89970.84;;;10.27
43292;BMP280;28754;47.700;7.924;2023-03-14T02:51:00;89968.56;;;10.26
43292;BMP280;28754;47.700;7.924;2023-03-14T02:53:48;89954.28;;;10.25
43292;BMP280;28754;47.700;7.924;2023-03-14T02:56:35;89968.38;;;10.22
43292;BMP280;28754;47.700;7.924;2023-03-14T02:59:23;89955.91;;;10.21
43292;BMP280;28754;47.700;7.924;2023-03-14T03:02:14;89942.66;;;10.19
43292;BMP280;28754;47.700;7.924;2023-03-14T03:05:01;89944.16;;;10.20
43292;BMP280;28754;47.700;7.924;2023-03-14T03:07:48;89946.69;;;10.20
43292;BMP280;28754;47.700;7.924;2023-03-14T03:10:34;89940.56;;;10.21
43292;BMP280;28754;47.700;7.924;2023-03-14T03:13:21;89928.81;;;10.20
43292;BMP280;28754;47.700;7.924;2023-03-14T03:16:12;89920.84;;;10.21
43292;BMP280;28754;47.700;7.924;2023-03-14T03:19:01;89927.31;;;10.19
43292;BMP280;28754;47.700;7.924;2023-03-14T03:21:47;89919.91;;;10.17
43292;BMP280;28754;47.700;7.924;2023-03-14T03:24:34;89920.31;;;10.11
43292;BMP280;28754;47.700;7.924;2023-03-14T03:27:22;89914.25;;;10.07
43292;BMP280;28754;47.700;7.924;2023-03-14T03:30:09;89919.47;;;10.02
43292;BMP280;28754;47.700;7.924;2023-03-14T03:32:56;89912.09;;;10.00
43292;BMP280;28754;47.700;7.924;2023-03-14T03:35:47;89908.22;;;10.03
43292;BMP280;28754;47.700;7.924;2023-03-14T03:38:37;89896.94;;;10.04
43292;BMP280;28754;47.700;7.924;2023-03-14T03:41:24;89897.81;;;9.99
43292;BMP280;28754;47.700;7.924;2023-03-14T03:44:11;89893.56;;;9.95
43292;BMP280;28754;47.700;7.924;2023-03-14T03:46:59;89890.25;;;9.94
43292;BMP280;28754;47.700;7.924;2023-03-14T03:49:46;89887.97;;;9.93
43292;BMP280;28754;47.700;7.924;2023-03-14T03:52:32;89888.56;;;9.90
43292;BMP280;28754;47.700;7.924;2023-03-14T03:55:19;89883.88;;;9.92
43292;BMP280;28754;47.700;7.924;2023-03-14T03:58:06;89880.41;;;9.88
43292;BMP280;28754;47.700;7.924;2023-03-14T04:00:54;89879.16;;;9.86
43292;BMP280;28754;47.700;7.924;2023-03-14T04:03:40;89881.41;;;9.87
43292;BMP280;28754;47.700;7.924;2023-03-14T04:06:27;89882.47;;;9.86
43292;BMP280;28754;47.700;7.924;2023-03-14T04:09:17;89879.44;;;9.84
43292;BMP280;28754;47.700;7.924;2023-03-14T04:12:07;89883.03;;;9.83
43292;BMP280;28754;47.700;7.924;2023-03-14T04:15:08;89874.16;;;9.81
43292;BMP280;28754;47.700;7.924;2023-03-14T04:17:58;89865.25;;;9.78
43292;BMP280;28754;47.700;7.924;2023-03-14T04:20:45;89855.16;;;9.73
43292;BMP280;28754;47.700;7.924;2023-03-14T04:23:32;89852.22;;;9.66
43292;BMP280;28754;47.700;7.924;2023-03-14T04:26:19;89839.44;;;9.66
43292;BMP280;28754;47.700;7.924;2023-03-14T04:29:07;89839.75;;;9.65
43292;BMP280;28754;47.700;7.924;2023-03-14T04:31:53;89826.03;;;9.61
43292;BMP280;28754;47.700;7.924;2023-03-14T04:34:40;89816.09;;;9.59
43292;BMP280;28754;47.700;7.924;2023-03-14T04:37:27;89827.84;;;9.60
43292;BMP280;28754;47.700;7.924;2023-03-14T04:40:15;89818.56;;;9.64
43292;BMP280;28754;47.700;7.924;2023-03-14T04:43:02;89820.06;;;9.65
43292;BMP280;28754;47.700;7.924;2023-03-14T04:45:48;89818.72;;;9.68
43292;BMP280;28754;47.700;7.924;2023-03-14T04:48:35;89811.78;;;9.68
43292;BMP280;28754;47.700;7.924;2023-03-14T04:51:22;89807.47;;;9.69
43292;BMP280;28754;47.700;7.924;2023-03-14T04:54:09;89803.09;;;9.69
43292;BMP280;28754;47.700;7.924;2023-03-14T04:56:56;89794.38;;;9.70
43292;BMP280;28754;47.700;7.924;2023-03-14T04:59:44;89789.28;;;9.70
43292;BMP280;28754;47.700;7.924;2023-03-14T05:03:09;89787.78;;;9.69
43292;BMP280;28754;47.700;7.924;2023-03-14T05:06:14;89781.59;;;9.70
43292;BMP280;28754;47.700;7.924;2023-03-14T05:09:09;89781.59;;;9.70
43292;BMP280;28754;47.700;7.924;2023-03-14T05:12:06;89777.84;;;9.68
43292;BMP280;28754;47.700;7.924;2023-03-14T05:15:14;89760.19;;;9.58
43292;BMP280;28754;47.700;7.924;2023-03-14T05:18:25;89776.34;;;9.54
43292;BMP280;28754;47.700;7.924;2023-03-14T05:21:37;89765.69;;;9.52
43292;BMP280;28754;47.700;7.924;2023-03-14T05:24:33;89772.59;;;9.51
43292;BMP280;28754;47.700;7.924;2023-03-14T05:27:22;89764.75;;;9.48
43292;BMP280;28754;47.700;7.924;2023-03-14T05:30:27;89755.00;;;9.50
43292;BMP280;28754;47.700;7.924;2023-03-14T05:33:41;89756.50;;;9.51
43292;BMP280;28754;47.700;7.924;2023-03-14T05:36:30;89758.13;;;9.47
43292;BMP280;28754;47.700;7.924;2023-03-14T05:39:36;89748.66;;;9.47
43292;BMP280;28754;47.700;7.924;2023-03-14T05:42:48;89756.03;;;9.49
43292;BMP280;28754;47.700;7.924;2023-03-14T05:45:59;89751.41;;;9.51
43292;BMP280;28754;47.700;7.924;2023-03-14T05:49:04;89733.50;;;9.51
43292;BMP280;28754;47.700;7.924;2023-03-14T05:52:10;89726.59;;;9.51
43292;BMP280;28754;47.700;7.924;2023-03-14T05:54:57;89725.25;;;9.54
43292;BMP280;28754;47.700;7.924;2023-03-14T05:58:12;89706.94;;;9.52
43292;BMP280;28754;47.700;7.924;2023-03-14T06:01:12;89716.09;;;9.53
43292;BMP280;28754;47.700;7.924;2023-03-14T06:04:18;89717.16;;;9.52
43292;BMP280;28754;47.700;7.924;2023-03-14T06:07:10;89716.50;;;9.46
43292;BMP280;28754;47.700;7.924;2023-03-14T06:09:57;89709.31;;;9.48
43292;BMP280;28754;47.700;7.924;2023-03-14T06:12:45;89714.59;;;9.52
43292;BMP280;28754;47.700;7.924;2023-03-14T06:15:31;89712.97;;;9.56
43292;BMP280;28754;47.700;7.924;2023-03-14T06:18:19;89716.16;;;9.61
43292;BMP280;28754;47.700;7.924;2023-03-14T06:21:06;89722.75;;;9.75
43292;BMP280;28754;47.700;7.924;2023-03-14T06:23:54;89717.63;;;9.97
43292;BMP280;28754;47.700;7.924;2023-03-14T06:26:42;89721.38;;;10.21
43292;BMP280;28754;47.700;7.924;2023-03-14T06:29:29;89717.44;;;10.54
43292;BMP280;28754;47.700;7.924;2023-03-14T06:32:16;89716.28;;;10.60
43292;BMP280;28754;47.700;7.924;2023-03-14T06:35:05;89706.94;;;10.55
43292;BMP280;28754;47.700;7.924;2023-03-14T06:37:56;89698.59;;;10.41
43292;BMP280;28754;47.700;7.924;2023-03-14T06:40:43;89701.56;;;10.35
43292;BMP280;28754;47.700;7.924;2023-03-14T06:43:36;89715.25;;;10.30
43292;BMP280;28754;47.700;7.924;2023-03-14T06:46:24;89708.03;;;10.32
43292;BMP280;28754;47.700;7.924;2023-03-14T06:49:11;89706.84;;;10.38
43292;BMP280;28754;47.700;7.924;2023-03-14T06:51:57;89709.03;;;10.53
43292;BMP280;28754;47.700;7.924;2023-03-14T06:54:44;89708.78;;;10.63
43292;BMP280;28754;47.700;7.924;2023-03-14T06:57:31;89703.53;;;10.76
43292;BMP280;28754;47.700;7.924;2023-03-14T07:00:18;89715.13;;;10.74
43292;BMP280;28754;47.700;7.924;2023-03-14T07:03:05;89714.19;;;10.62
43292;BMP280;28754;47.700;7.924;2023-03-14T07:05:56;89719.09;;;10.50
43292;BMP280;28754;47.700;7.924;2023-03-14T07:08:42;89722.81;;;10.35
43292;BMP280;28754;47.700;7.924;2023-03-14T07:11:29;89722.44;;;10.28
43292;BMP280;28754;47.700;7.924;2023-03-14T07:14:16;89726.94;;;10.23
43292;BMP280;28754;47.700;7.924;2023-03-14T07:17:03;89740.63;;;10.19
43292;BMP280;28754;47.700;7.924;2023-03-14T07:19:50;89743.88;;;10.11
43292;BMP280;28754;47.700;7.924;2023-03-14T07:22:36;89748.38;;;10.05
43292;BMP280;28754;47.700;7.924;2023-03-14T07:25:23;89742.31;;;10.01
43292;BMP280;28754;47.700;7.924;2023-03-14T07:28:10;89749.53;;;9.99
43292;BMP280;28754;47.700;7.924;2023-03-14T07:30:59;89754.66;;;9.99
43292;BMP280;28754;47.700;7.924;2023-03-14T07:33:51;89752.84;;;10.00
43292;BMP280;28754;47.700;7.924;2023-03-14T07:36:39;89753.91;;;9.99
43292;BMP280;28754;47.700;7.924;2023-03-14T07:39:25;89761.25;;;10.00
43292;BMP280;28754;47.700;7.924;2023-03-14T07:42:21;89769.09;;;10.04
43292;BMP280;28754;47.700;7.924;2023-03-14T07:45:32;89776.97;;;10.07
43292;BMP280;28754;47.700;7.924;2023-03-14T07:48:18;89775.91;;;10.08
43292;BMP280;28754;47.700;7.924;2023-03-14T07:51:05;89793.06;;;10.08
43292;BMP280;28754;47.700;7.924;2023-03-14T07:53:51;89791.53;;;10.07
43292;BMP280;28754;47.700;7.924;2023-03-14T07:56:38;89775.63;;;10.10
43292;BMP280;28754;47.700;7.924;2023-03-14T07:59:24;89780.13;;;10.13
43292;BMP280;28754;47.700;7.924;2023-03-14T08:02:11;89779.09;;;10.14
43292;BMP280;28754;47.700;7.924;2023-03-14T08:04:59;89779.09;;;10.14
43292;BMP280;28754;47.700;7.924;2023-03-14T08:07:45;89784.22;;;10.14
43292;BMP280;28754;47.700;7.924;2023-03-14T08:10:32;89788.47;;;10.18
43292;BMP280;28754;47.700;7.924;2023-03-14T08:13:18;89788.91;;;10.20
43292;BMP280;28754;47.700;7.924;2023-03-14T08:16:05;89786.06;;;10.22
43292;BMP280;28754;47.700;7.924;2023-03-14T08:18:52;89793.25;;;10.20
43292;BMP280;28754;47.700;7.924;2023-03-14T08:21:38;89791.47;;;10.20
43292;BMP280;28754;47.700;7.924;2023-03-14T08:24:25;89790.13;;;10.23
43292;BMP280;28754;47.700;7.924;2023-03-14T08:27:12;89791.63;;;10.24
43292;BMP280;28754;47.700;7.924;2023-03-14T08:30:01;89792.97;;;10.21
43292;BMP280;28754;47.700;7.924;2023-03-14T08:32:47;89793.09;;;10.16
43292;BMP280;28754;47.700;7.924;2023-03-14T08:35:34;89803.44;;;10.11
43292;BMP280;28754;47.700;7.924;2023-03-14T08:38:21;89791.25;;;10.08
43292;BMP280;28754;47.700;7.924;2023-03-14T08:41:08;89803.09;;;10.04
43292;BMP280;28754;47.700;7.924;2023-03-14T08:43:54;89797.34;;;9.99
43292;BMP280;28754;47.700;7.924;2023-03-14T08:46:41;89806.81;;;9.98
43292;BMP280;28754;47.700;7.924;2023-03-14T08:49:27;89807.13;;;9.97
43292;BMP280;28754;47.700;7.924;2023-03-14T08:52:14;89806.66;;;9.95
43292;BMP280;28754;47.700;7.924;2023-03-14T08:55:02;89811.09;;;9.90
43292;BMP280;28754;47.700;7.924;2023-03-14T08:57:49;89806.94;;;9.80
43292;BMP280;28754;47.700;7.924;2023-03-14T09:00:35;89808.78;;;9.66
43292;BMP280;28754;47.700;7.924;2023-03-14T09:03:22;89812.38;;;9.65
43292;BMP280;28754;47.700;7.924;2023-03-14T09:06:09;89814.66;;;9.67
43292;BMP280;28754;47.700;7.924;2023-03-14T09:08:56;89830.94;;;9.71
43292;BMP280;28754;47.700;7.924;2023-03-14T09:11:43;89828.78;;;9.64
43292;BMP280;28754;47.700;7.924;2023-03-14T09:14:31;89828.00;;;9.64
43292;BMP280;28754;47.700;7.924;2023-03-14T09:17:18;89827.84;;;9.60
43292;BMP280;28754;47.700;7.924;2023-03-14T09:20:05;89842.09;;;9.61
43292;BMP280;28754;47.700;7.924;2023-03-14T09:22:55;89837.00;;;9.61
43292;BMP280;28754;47.700;7.924;2023-03-14T09:25:41;89830.09;;;9.62
43292;BMP280;28754;47.700;7.924;2023-03-14T09:28:28;89833.69;;;9.61
43292;BMP280;28754;47.700;7.924;2023-03-14T09:31:15;89837.59;;;9.58
43292;BMP280;28754;47.700;7.924;2023-03-14T09:34:02;89840.59;;;9.60
43292;BMP280;28754;47.700;7.924;2023-03-14T09:36:50;89843.31;;;9.64
43292;BMP280;28754;47.700;7.924;2023-03-14T09:39:37;89834.91;;;9.63
43292;BMP280;28754;47.700;7.924;2023-03-14T09:42:26;89843.63;;;9.62
43292;BMP280;28754;47.700;7.924;2023-03-14T09:45:23;89849.28;;;9.59
43292;BMP280;28754;47.700;7.924;2023-03-14T09:48:20;89847.13;;;9.53
43292;BMP280;28754;47.700;7.924;2023-03-14T09:51:13;89869.75;;;9.46
43292;BMP280;28754;47.700;7.924;2023-03-14T09:54:01;89852.28;;;9.40
43292;BMP280;28754;47.700;7.924;2023-03-14T09:56:47;89864.19;;;9.31
43292;BMP280;28754;47.700;7.924;2023-03-14T09:59:35;89864.38;;;9.21
43292;BMP280;28754;47.700;7.924;2023-03-14T10:02:28;89871.41;;;9.16
43292;BMP280;28754;47.700;7.924;2023-03-14T10:05:22;89872.72;;;9.13
43292;BMP280;28754;47.700;7.924;2023-03-14T10:08:13;89876.88;;;9.09
43292;BMP280;28754;47.700;7.924;2023-03-14T10:11:00;89856.84;;;9.03
43292;BMP280;28754;47.700;7.924;2023-03-14T10:16:51;89880.25;;;8.78
43292;BMP280;28754;47.700;7.924;2023-03-14T10:19:51;89875.50;;;8.72
43292;BMP280;28754;47.700;7.924;2023-03-14T10:22:39;89894.78;;;8.64
43292;BMP280;28754;47.700;7.924;2023-03-14T10:25:31;89898.28;;;8.68
43292;BMP280;28754;47.700;7.924;2023-03-14T10:28:30;89896.50;;;8.69
43292;BMP280;28754;47.700;7.924;2023-03-14T10:31:18;89909.34;;;8.64
43292;BMP280;28754;47.700;7.924;2023-03-14T10:34:04;89910.44;;;8.58
43292;BMP280;28754;47.700;7.924;2023-03-14T10:36:53;89921.75;;;8.52
43292;BMP280;28754;47.700;7.924;2023-03-14T10:39:56;89918.06;;;8.45
43292;BMP280;28754;47.700;7.924;2023-03-14T10:42:44;89913.13;;;8.35
43292;BMP280;28754;47.700;7.924;2023-03-14T10:45:40;89919.53;;;8.32
43292;BMP280;28754;47.700;7.924;2023-03-14T10:51:29;89926.13;;;8.33
43292;BMP280;28754;47.700;7.924;2023-03-14T10:54:21;89922.06;;;8.32
43292;BMP280;28754;47.700;7.924;2023-03-14T10:57:07;89944.47;;;8.35
43292;BMP280;28754;47.700;7.924;2023-03-14T10:59:55;89944.47;;;8.35
43292;BMP280;28754;47.700;7.924;2023-03-14T11:03:06;89938.03;;;8.38
43292;BMP280;28754;47.700;7.924;2023-03-14T11:06:06;89936.63;;;8.32
43292;BMP280;28754;47.700;7.924;2023-03-14T11:11:51;89950.00;;;8.24
43292;BMP280;28754;47.700;7.924;2023-03-14T11:14:42;89952.06;;;8.22
43292;BMP280;28754;47.700;7.924;2023-03-14T11:17:37;89962.59;;;8.16
43292;BMP280;28754;47.700;7.924;2023-03-14T11:20:27;89978.47;;;8.13
43292;BMP280;28754;47.700;7.924;2023-03-14T11:23:21;89970.84;;;8.08
43292;BMP280;28754;47.700;7.924;2023-03-14T11:26:18;89993.84;;;8.03
43292;BMP280;28754;47.700;7.924;2023-03-14T11:32:07;90003.63;;;7.96
43292;BMP280;28754;47.700;7.924;2023-03-14T11:34:59;90003.88;;;7.94
43292;BMP280;28754;47.700;7.924;2023-03-14T11:37:55;90020.41;;;7.97
43292;BMP280;28754;47.700;7.924;2023-03-14T11:40:48;90013.25;;;7.99
43292;BMP280;28754;47.700;7.924;2023-03-14T11:43:38;90026.97;;;8.03
43292;BMP280;28754;47.700;7.924;2023-03-14T11:46:33;90037.09;;;8.08
43292;BMP280;28754;47.700;7.924;2023-03-14T11:49:47;90044.75;;;8.08
43292;BMP280;28754;47.700;7.924;2023-03-14T11:52:53;90054.72;;;8.09
43292;BMP280;28754;47.700;7.924;2023-03-14T11:55:42;90060.03;;;8.13
43292;BMP280;28754;47.700;7.924;2023-03-14T11:58:33;90074.00;;;8.15
43292;BMP280;28754;47.700;7.924;2023-03-14T12:01:23;90071.16;;;8.17
43292;BMP280;28754;47.700;7.924;2023-03-14T12:04:22;90080.88;;;8.15
43292;BMP280;28754;47.700;7.924;2023-03-14T12:10:50;90076.06;;;7.90
43292;BMP280;28754;47.700;7.924;2023-03-14T12:13:39;90081.72;;;7.87
43292;BMP280;28754;47.700;7.924;2023-03-14T12:16:35;90094.72;;;7.86
43292;BMP280;28754;47.700;7.924;2023-03-14T12:22:26;90095.78;;;7.80
43292;BMP280;28754;47.700;7.924;2023-03-14T12:25:22;90124.38;;;7.72
43292;BMP280;28754;47.700;7.924;2023-03-14T12:28:20;90143.03;;;7.67
43292;BMP280;28754;47.700;7.924;2023-03-14T12:37:14;90169.09;;;7.59
43292;BMP280;28754;47.700;7.924;2023-03-14T12:40:11;90186.47;;;7.52
43292;BMP280;28754;47.700;7.924;2023-03-14T12:43:03;90195.19;;;7.47
43292;BMP280;28754;47.700;7.924;2023-03-14T12:51:58;90210.81;;;7.68
43292;BMP280;28754;47.700;7.924;2023-03-14T13:00:57;90219.25;;;7.64
43292;BMP280;28754;47.700;7.924;2023-03-14T13:03:57;90243.94;;;7.63
43292;BMP280;28754;47.700;7.924;2023-03-14T13:07:00;90264.84;;;7.60
43292;BMP280;28754;47.700;7.924;2023-03-14T13:10:05;90262.84;;;7.57
43292;BMP280;28754;47.700;7.924;2023-03-14T13:13:22;90254.66;;;7.60
43292;BMP280;28754;47.700;7.924;2023-03-14T13:16:14;90255.66;;;7.64
43292;BMP280;28754;47.700;7.924;2023-03-14T13:19:18;90272.50;;;7.60
43292;BMP280;28754;47.700;7.924;2023-03-14T13:22:20;90282.19;;;7.58
43292;BMP280;28754;47.700;7.924;2023-03-14T13:25:10;90290.41;;;7.51
43292;BMP280;28754;47.700;7.924;2023-03-14T13:27:57;90293.50;;;7.43
43292;BMP280;28754;47.700;7.924;2023-03-14T13:30:46;90295.09;;;7.34
43292;BMP280;28754;47.700;7.924;2023-03-14T13:33:33;90297.63;;;7.29
43292;BMP280;28754;47.700;7.924;2023-03-14T13:36:22;90298.44;;;7.29
43292;BMP280;28754;47.700;7.924;2023-03-14T13:39:20;90308.53;;;7.39
43292;BMP280;28754;47.700;7.924;2023-03-14T13:42:15;90326.06;;;7.46
43292;BMP280;28754;47.700;7.924;2023-03-14T13:45:03;90323.00;;;7.49
43292;BMP280;28754;47.700;7.924;2023-03-14T13:47:51;90328.56;;;7.55
43292;BMP280;28754;47.700;7.924;2023-03-14T13:50:38;90332.63;;;7.61
43292;BMP280;28754;47.700;7.924;2023-03-14T13:53:25;90350.44;;;7.61
43292;BMP280;28754;47.700;7.924;2023-03-14T13:56:11;90350.91;;;7.63
43292;BMP280;28754;47.700;7.924;2023-03-14T13:58:58;90350.41;;;7.66
43292;BMP280;28754;47.700;7.924;2023-03-14T14:01:46;90363.66;;;7.68
43292;BMP280;28754;47.700;7.924;2023-03-14T14:04:36;90351.66;;;7.69
43292;BMP280;28754;47.700;7.924;2023-03-14T14:07:24;90349.13;;;7.69
43292;BMP280;28754;47.700;7.924;2023-03-14T14:10:14;90353.91;;;7.75
43292;BMP280;28754;47.700;7.924;2023-03-14T14:13:03;90367.19;;;7.72
43292;BMP280;28754;47.700;7.924;2023-03-14T14:15:52;90363.16;;;7.66
43292;BMP280;28754;47.700;7.924;2023-03-14T14:18:40;90371.84;;;7.60
43292;BMP280;28754;47.700;7.924;2023-03-14T14:21:27;90380.22;;;7.61
43292;BMP280;28754;47.700;7.924;2023-03-14T14:24:14;90378.94;;;7.68
43292;BMP280;28754;47.700;7.924;2023-03-14T14:27:14;90386.25;;;7.80
43292;BMP280;28754;47.700;7.924;2023-03-14T14:30:06;90376.50;;;7.86
43292;BMP280;28754;47.700;7.924;2023-03-14T14:33:18;90388.78;;;7.80
43292;BMP280;28754;47.700;7.924;2023-03-14T14:36:14;90388.81;;;7.75
43292;BMP280;28754;47.700;7.924;2023-03-14T14:39:16;90397.72;;;7.77
43292;BMP280;28754;47.700;7.924;2023-03-14T14:42:03;90393.13;;;7.79
43292;BMP280;28754;47.700;7.924;2023-03-14T14:44:51;90394.38;;;7.82
43292;BMP280;28754;47.700;7.924;2023-03-14T14:47:49;90390.53;;;7.84
43292;BMP280;28754;47.700;7.924;2023-03-14T14:50:48;90391.78;;;7.86
43292;BMP280;28754;47.700;7.924;2023-03-14T14:53:38;90390.00;;;7.92
43292;BMP280;28754;47.700;7.924;2023-03-14T14:56:27;90385.13;;;7.95
43292;BMP280;28754;47.700;7.924;2023-03-14T14:59:21;90383.84;;;7.98
43292;BMP280;28754;47.700;7.924;2023-03-14T15:02:30;90402.69;;;7.97
43292;BMP280;28754;47.700;7.924;2023-03-14T15:05:19;90384.91;;;7.92
43292;BMP280;28754;47.700;7.924;2023-03-14T15:08:10;90383.34;;;7.91
43292;BMP280;28754;47.700;7.924;2023-03-14T15:10:57;90393.56;;;7.91
43292;BMP280;28754;47.700;7.924;2023-03-14T15:13:44;90383.91;;;7.88
43292;BMP280;28754;47.700;7.924;2023-03-14T15:16:31;90391.59;;;7.83
43292;BMP280;28754;47.700;7.924;2023-03-14T15:19:23;90391.59;;;7.78
43292;BMP280;28754;47.700;7.924;2023-03-14T15:22:13;90408.25;;;8.04
43292;BMP280;28754;47.700;7.924;2023-03-14T15:25:00;90393.84;;;8.27
43292;BMP280;28754;47.700;7.924;2023-03-14T15:27:47;90399.38;;;8.39
43292;BMP280;28754;47.700;7.924;2023-03-14T15:30:33;90397.09;;;8.66
43292;BMP280;28754;47.700;7.924;2023-03-14T15:33:20;90387.97;;;8.88
43292;BMP280;28754;47.700;7.924;2023-03-14T15:36:19;90388.78;;;8.84
43292;BMP280;28754;47.700;7.924;2023-03-14T15:39:07;90393.75;;;8.70
43292;BMP280;28754;47.700;7.924;2023-03-14T15:41:53;90361.88;;;8.68
43292;BMP280;28754;47.700;7.924;2023-03-14T15:44:40;90397.19;;;8.56
43292;BMP280;28754;47.700;7.924;2023-03-14T15:47:26;90406.66;;;8.56
43292;BMP280;28754;47.700;7.924;2023-03-14T15:50:14;90394.97;;;8.78
43292;BMP280;28754;47.700;7.924;2023-03-14T15:53:00;90394.97;;;8.78
43292;BMP280;28754;47.700;7.924;2023-03-14T15:55:47;90402.16;;;8.71
43292;BMP280;28754;47.700;7.924;2023-03-14T15:58:33;90408.09;;;8.61
43292;BMP280;28754;47.700;7.924;2023-03-14T16:01:20;90401.31;;;8.52
43292;BMP280;28754;47.700;7.924;2023-03-14T16:04:06;90395.78;;;8.40
43292;BMP280;28754;47.700;7.924;2023-03-14T16:06:53;90402.53;;;8.26
43292;BMP280;28754;47.700;7.924;2023-03-14T16:09:39;90386.78;;;8.15
43292;BMP280;28754;47.700;7.924;2023-03-14T16:12:26;90404.94;;;8.08
43292;BMP280;28754;47.700;7.924;2023-03-14T16:15:12;90403.19;;;7.99
43292;BMP280;28754;47.700;7.924;2023-03-14T16:17:59;90398.66;;;7.91
43292;BMP280;28754;47.700;7.924;2023-03-14T16:20:52;90388.50;;;7.86
43292;BMP280;28754;47.700;7.924;2023-03-14T16:23:38;90382.41;;;7.82
43292;BMP280;28754;47.700;7.924;2023-03-14T16:26:25;90411.47;;;7.81
43292;BMP280;28754;47.700;7.924;2023-03-14T16:29:11;90418.88;;;7.78
43292;BMP280;28754;47.700;7.924;2023-03-14T16:31:58;90445.41;;;7.67
43292;BMP280;28754;47.700;7.924;2023-03-14T16:34:44;90428.44;;;7.48
43292;BMP280;28754;47.700;7.924;2023-03-14T16:37:31;90449.38;;;7.35
43292;BMP280;28754;47.700;7.924;2023-03-14T16:40:18;90443.03;;;7.27
43292;BMP280;28754;47.700;7.924;2023-03-14T16:43:04;90447.88;;;7.14
43292;BMP280;28754;47.700;7.924;2023-03-14T16:45:51;90458.34;;;7.03
43292;BMP280;28754;47.700;7.924;2023-03-14T16:48:40;90449.22;;;6.92
43292;BMP280;28754;47.700;7.924;2023-03-14T16:51:27;90443.88;;;6.88
43292;BMP280;28754;47.700;7.924;2023-03-14T16:54:14;90455.59;;;6.89
43292;BMP280;28754;47.700;7.924;2023-03-14T16:57:00;90456.13;;;6.86
43292;BMP280;28754;47.700;7.924;2023-03-14T16:59:47;90462.22;;;6.85
43292;BMP280;28754;47.700;7.924;2023-03-14T17:02:35;90462.47;;;6.84
43292;BMP280;28754;47.700;7.924;2023-03-14T17:05:22;90454.31;;;6.87
43292;BMP280;28754;47.700;7.924;2023-03-14T17:08:08;90457.88;;;6.91
43292;BMP280;28754;47.700;7.924;2023-03-14T17:10:55;90460.16;;;6.87
43292;BMP280;28754;47.700;7.924;2023-03-14T17:13:41;90463.75;;;6.82